Fulton, Maryland
Current Conditions -  °F | °C
As of 1:48 AM on Tuesday 21 Oct 2014 (Local Time) from KFME Reporting Station
Overcast Overcast  
Wind Chill: 50°   Ceiling: 7500
Heat Index: 50°   Visibility: 10mi
Dew Point: 48°   Wind: 0mph
Humidity: 94%   Direction: NA
Pressure: 29.93"   Gusts: NA
Location:  39.15°N, 76.92°W
Report Text: KFME 210548Z AUTO 00000KT 10SM SCT060 OVC075 10/09 A2993 RMK AO1
Loading
Personal Weather Stations






























Interactive Weather Map New forecast layout! Learn more

10-Day Weather Forecast

Advertisements
Track Severe Weather on mobile